Time;durP1;ratioP1;P1;durP2;ratioP2;P2;SDS_P1;SDS_P2;PMS_P1;PMS_P2;Temp;Humidity;BMP_temperature;BMP_pressure;BME280_temperature;BME280_humidity;BME280_pressure;Samples;Min_cycle;Max_cycle;Signal;HPM_P1;HPM_P2
2023/02/03 00:00:49;;;;;;;8.95;6.10;;;5.90;99.90;;;;;;495785;239;27483;-77
2023/02/03 00:02:51;;;;;;;11.57;6.50;;;5.90;99.90;;;;;;495784;239;27364;-74
2023/02/03 00:04:52;;;;;;;9.73;5.72;;;5.90;99.90;;;;;;495767;239;27899;-73
2023/02/03 00:06:53;;;;;;;9.27;6.70;;;5.90;99.90;;;;;;495854;239;27483;-74
2023/02/03 00:08:54;;;;;;;10.77;6.10;;;5.90;99.90;;;;;;495829;239;27408;-73
2023/02/03 00:10:56;;;;;;;10.80;5.85;;;5.90;99.90;;;;;;495810;239;27531;-75
2023/02/03 00:12:57;;;;;;;12.63;6.57;;;5.90;99.90;;;;;;495766;239;27349;-73
2023/02/03 00:14:58;;;;;;;9.05;6.12;;;5.90;99.90;;;;;;495781;239;27504;-78
2023/02/03 00:16:59;;;;;;;10.15;5.85;;;5.90;99.90;;;;;;495839;239;28053;-76
2023/02/03 00:19:01;;;;;;;10.00;6.72;;;5.90;99.90;;;;;;495784;239;28123;-76
2023/02/03 00:21:02;;;;;;;9.30;5.55;;;5.90;99.90;;;;;;495795;239;27427;-73
2023/02/03 00:23:03;;;;;;;6.37;5.65;;;5.90;99.90;;;;;;495794;239;27468;-73
2023/02/03 00:25:04;;;;;;;9.35;6.10;;;5.90;99.90;;;;;;495768;239;27618;-76
2023/02/03 00:27:06;;;;;;;9.68;6.00;;;5.90;99.90;;;;;;495836;239;27430;-78
2023/02/03 00:29:08;;;;;;;5.75;4.85;;;5.90;99.90;;;;;;495830;239;27479;-76
2023/02/03 00:31:08;;;;;;;12.30;6.15;;;5.90;99.90;;;;;;495711;239;27892;-76
2023/02/03 00:33:09;;;;;;;10.00;6.05;;;5.90;99.90;;;;;;495779;239;27546;-74
2023/02/03 00:35:11;;;;;;;9.85;5.30;;;5.90;99.90;;;;;;495769;239;27483;-73
2023/02/03 00:37:12;;;;;;;9.75;5.53;;;5.90;99.90;;;;;;495818;239;27372;-76
2023/02/03 00:39:14;;;;;;;9.50;6.10;;;5.90;99.90;;;;;;495860;239;27352;-76
2023/02/03 00:41:14;;;;;;;8.80;6.32;;;5.90;99.90;;;;;;495749;239;27512;-73
2023/02/03 00:43:16;;;;;;;11.50;6.72;;;5.90;99.90;;;;;;495830;239;27766;-74
2023/02/03 00:45:17;;;;;;;9.57;7.00;;;5.80;99.90;;;;;;495797;239;27860;-74
2023/02/03 00:47:18;;;;;;;13.95;6.90;;;5.80;99.90;;;;;;495830;239;27375;-73
2023/02/03 00:49:19;;;;;;;6.18;5.43;;;5.80;99.90;;;;;;495789;239;27443;-73
2023/02/03 00:51:21;;;;;;;12.25;6.70;;;5.80;99.90;;;;;;495844;239;27460;-73
2023/02/03 00:53:22;;;;;;;10.05;6.50;;;5.80;99.90;;;;;;495815;239;27418;-74
2023/02/03 00:55:23;;;;;;;8.50;5.72;;;5.80;99.90;;;;;;495831;239;27484;-73
2023/02/03 00:57:25;;;;;;;7.53;5.57;;;5.80;99.90;;;;;;495764;239;28562;-73
2023/02/03 00:59:26;;;;;;;8.60;6.35;;;5.80;99.90;;;;;;495803;239;28044;-73
2023/02/03 01:01:27;;;;;;;10.35;5.93;;;5.80;99.90;;;;;;495809;239;27404;-78
2023/02/03 01:03:28;;;;;;;9.70;5.53;;;5.80;99.90;;;;;;495789;239;27531;-73
2023/02/03 01:05:30;;;;;;;6.40;5.15;;;5.80;99.90;;;;;;495770;239;27432;-74
2023/02/03 01:07:31;;;;;;;8.30;5.35;;;5.80;99.90;;;;;;495773;239;27499;-76
2023/02/03 01:09:32;;;;;;;6.95;6.22;;;5.80;99.90;;;;;;495825;239;27411;-77
2023/02/03 01:11:33;;;;;;;7.80;6.40;;;5.80;99.90;;;;;;495831;239;28003;-73
2023/02/03 01:13:35;;;;;;;10.57;6.43;;;5.80;99.90;;;;;;495788;239;27958;-76
2023/02/03 01:15:36;;;;;;;7.18;6.00;;;5.70;99.90;;;;;;495820;239;27422;-78
2023/02/03 01:17:37;;;;;;;8.35;5.28;;;5.80;99.90;;;;;;495791;239;27360;-76
2023/02/03 01:19:38;;;;;;;7.53;5.20;;;5.80;99.90;;;;;;495828;239;27396;-76
2023/02/03 01:21:40;;;;;;;9.68;5.68;;;5.80;99.90;;;;;;495819;239;27427;-73
2023/02/03 01:23:41;;;;;;;9.15;5.78;;;5.80;99.90;;;;;;495816;239;27353;-76
2023/02/03 01:25:42;;;;;;;7.72;5.28;;;5.80;99.90;;;;;;495710;239;27932;-73
2023/02/03 01:27:43;;;;;;;6.20;5.20;;;5.80;99.90;;;;;;495734;239;28570;-76
2023/02/03 01:29:45;;;;;;;9.75;4.78;;;5.80;99.90;;;;;;495803;239;27388;-74
2023/02/03 01:31:46;;;;;;;7.03;5.50;;;5.80;99.90;;;;;;495774;239;27396;-73
2023/02/03 01:33:47;;;;;;;7.68;5.80;;;5.80;99.90;;;;;;495785;239;27435;-76
2023/02/03 01:35:48;;;;;;;8.73;5.65;;;5.80;99.90;;;;;;495771;239;27400;-73
2023/02/03 01:37:50;;;;;;;6.22;5.62;;;5.80;99.90;;;;;;495766;239;27349;-74
2023/02/03 01:39:51;;;;;;;9.07;5.05;;;5.80;99.90;;;;;;495804;239;27905;-75
2023/02/03 01:41:52;;;;;;;7.97;5.40;;;5.80;99.90;;;;;;495772;239;27914;-73
2023/02/03 01:43:53;;;;;;;6.20;4.70;;;5.70;99.90;;;;;;495751;239;27344;-73
2023/02/03 01:45:55;;;;;;;6.65;4.75;;;5.70;99.90;;;;;;495747;239;27400;-77
2023/02/03 01:47:56;;;;;;;6.40;5.28;;;5.70;99.90;;;;;;495721;239;27358;-76
2023/02/03 01:49:57;;;;;;;7.35;5.55;;;5.70;99.90;;;;;;495792;239;27455;-77
2023/02/03 01:51:58;;;;;;;6.20;5.20;;;5.70;99.90;;;;;;495834;239;27483;-78
2023/02/03 01:54:00;;;;;;;8.35;5.32;;;5.70;99.90;;;;;;495815;239;27900;-77
2023/02/03 01:56:01;;;;;;;5.80;5.07;;;5.60;99.90;;;;;;495789;239;27910;-74
2023/02/03 01:58:02;;;;;;;6.07;5.18;;;5.60;99.90;;;;;;495785;239;27349;-76
2023/02/03 02:00:03;;;;;;;6.43;5.35;;;5.70;99.90;;;;;;495814;239;27399;-73
2023/02/03 02:02:05;;;;;;;10.18;5.30;;;5.70;99.90;;;;;;495822;239;27428;-78
2023/02/03 02:04:06;;;;;;;5.97;4.80;;;5.70;99.90;;;;;;495815;239;27451;-77
2023/02/03 02:06:07;;;;;;;5.70;5.12;;;5.70;99.90;;;;;;495774;239;27522;-73
2023/02/03 02:08:09;;;;;;;5.93;5.30;;;5.70;99.90;;;;;;495819;239;27497;-73
2023/02/03 02:10:10;;;;;;;6.80;5.28;;;5.70;99.90;;;;;;495763;239;27864;-74
2023/02/03 02:12:11;;;;;;;5.75;4.75;;;5.70;99.90;;;;;;495784;239;27984;-75
2023/02/03 02:14:12;;;;;;;6.47;5.22;;;5.70;99.90;;;;;;495823;239;27467;-73
2023/02/03 02:16:14;;;;;;;6.90;5.00;;;5.70;99.90;;;;;;495789;239;27388;-73
2023/02/03 02:18:15;;;;;;;6.78;4.97;;;5.70;99.90;;;;;;495777;239;27388;-74
2023/02/03 02:20:16;;;;;;;5.78;5.18;;;5.70;99.90;;;;;;495818;239;27491;-75
2023/02/03 02:22:17;;;;;;;5.80;4.68;;;5.70;99.90;;;;;;495763;239;27526;-78
2023/02/03 02:24:19;;;;;;;6.07;4.80;;;5.70;99.90;;;;;;495800;239;27519;-74
2023/02/03 02:26:20;;;;;;;7.57;4.72;;;5.70;99.90;;;;;;495771;239;28061;-75
2023/02/03 02:28:21;;;;;;;7.50;4.95;;;5.70;99.90;;;;;;495771;239;29909;-77
2023/02/03 02:30:22;;;;;;;5.70;5.10;;;5.70;99.90;;;;;;495817;239;27356;-73
2023/02/03 02:32:24;;;;;;;6.30;5.18;;;5.70;99.90;;;;;;495767;239;27487;-74
2023/02/03 02:34:25;;;;;;;7.70;5.03;;;5.70;99.90;;;;;;495825;239;27499;-73
2023/02/03 02:36:26;;;;;;;5.35;4.55;;;5.70;99.90;;;;;;495795;239;27423;-73
2023/02/03 02:38:27;;;;;;;5.03;4.62;;;5.70;99.90;;;;;;495839;239;27507;-73
2023/02/03 02:40:29;;;;;;;5.30;4.80;;;5.70;99.90;;;;;;495834;239;27375;-73
2023/02/03 02:42:30;;;;;;;6.60;5.45;;;5.70;99.90;;;;;;495836;239;27856;-75
2023/02/03 02:44:31;;;;;;;5.65;5.15;;;5.70;99.90;;;;;;495830;239;27939;-77
2023/02/03 02:46:32;;;;;;;6.37;5.10;;;5.70;99.90;;;;;;495798;239;27419;-73
2023/02/03 02:48:34;;;;;;;7.35;5.80;;;5.70;99.90;;;;;;495793;239;27495;-77
2023/02/03 02:50:35;;;;;;;6.53;5.35;;;5.70;99.90;;;;;;495823;239;27502;-76
2023/02/03 02:52:36;;;;;;;9.07;6.12;;;5.70;99.90;;;;;;495762;239;27492;-76
2023/02/03 02:54:37;;;;;;;6.37;5.40;;;5.60;99.90;;;;;;495810;239;27523;-76
2023/02/03 02:56:39;;;;;;;7.85;5.97;;;5.70;99.90;;;;;;495810;239;27503;-76
2023/02/03 02:58:40;;;;;;;7.60;6.47;;;5.70;99.90;;;;;;495821;239;27817;-74
2023/02/03 03:00:41;;;;;;;4.55;4.15;;;5.70;99.90;;;;;;495829;239;27951;-73
2023/02/03 03:02:42;;;;;;;9.88;6.45;;;5.70;99.90;;;;;;495839;239;27515;-77
2023/02/03 03:04:44;;;;;;;13.02;6.07;;;5.70;99.90;;;;;;495823;239;27535;-76
2023/02/03 03:06:45;;;;;;;11.43;6.43;;;5.70;99.90;;;;;;495800;239;27518;-76
2023/02/03 03:08:46;;;;;;;7.55;5.75;;;5.70;99.90;;;;;;495791;239;27349;-73
2023/02/03 03:10:47;;;;;;;8.15;6.25;;;5.70;99.90;;;;;;495813;239;27413;-74
2023/02/03 03:12:49;;;;;;;10.63;6.05;;;5.70;99.90;;;;;;495811;239;28031;-75
2023/02/03 03:14:50;;;;;;;10.10;6.43;;;5.70;99.90;;;;;;495804;239;27922;-75
2023/02/03 03:16:51;;;;;;;7.60;6.03;;;5.70;99.90;;;;;;495807;239;27496;-71
2023/02/03 03:18:53;;;;;;;8.70;5.65;;;5.70;99.90;;;;;;495796;239;27355;-74
2023/02/03 03:20:54;;;;;;;8.45;6.75;;;5.70;99.90;;;;;;495858;239;27463;-74
2023/02/03 03:22:55;;;;;;;7.20;5.87;;;5.70;99.90;;;;;;495836;239;27396;-77
2023/02/03 03:24:57;;;;;;;8.23;6.20;;;5.70;99.90;;;;;;495827;239;27370;-76
2023/02/03 03:26:58;;;;;;;7.68;6.32;;;5.70;99.90;;;;;;495820;239;28002;-73
2023/02/03 03:28:59;;;;;;;6.50;5.50;;;5.70;99.90;;;;;;495825;239;28903;-74
2023/02/03 03:31:00;;;;;;;8.85;5.55;;;5.70;99.90;;;;;;495798;239;27428;-74
2023/02/03 03:33:01;;;;;;;10.00;6.20;;;5.70;99.90;;;;;;495805;239;27441;-73
2023/02/03 03:35:03;;;;;;;7.62;6.28;;;5.80;99.90;;;;;;495819;239;27349;-73
2023/02/03 03:37:04;;;;;;;7.07;5.47;;;5.80;99.90;;;;;;495801;239;27385;-74
2023/02/03 03:39:05;;;;;;;8.90;5.93;;;5.80;99.90;;;;;;495850;239;27516;-74
2023/02/03 03:41:06;;;;;;;11.57;6.18;;;5.80;99.90;;;;;;495852;239;27471;-73
2023/02/03 03:43:08;;;;;;;7.47;5.90;;;5.80;99.90;;;;;;495808;239;28026;-74
2023/02/03 03:45:09;;;;;;;8.13;5.35;;;5.80;99.90;;;;;;495796;239;27890;-73
2023/02/03 03:47:10;;;;;;;6.87;5.60;;;5.80;99.90;;;;;;495802;239;27573;-75
2023/02/03 03:49:11;;;;;;;8.38;6.18;;;5.80;99.90;;;;;;495823;239;27455;-73
2023/02/03 03:51:13;;;;;;;8.98;6.40;;;5.80;99.90;;;;;;495839;239;27348;-74
2023/02/03 03:53:14;;;;;;;7.37;5.70;;;5.80;99.90;;;;;;495822;239;27525;-75
2023/02/03 03:55:15;;;;;;;8.68;5.40;;;5.80;99.90;;;;;;495836;239;27399;-73
2023/02/03 03:57:16;;;;;;;9.80;6.05;;;5.80;99.90;;;;;;495805;239;27906;-74
2023/02/03 03:59:18;;;;;;;9.07;5.18;;;5.80;99.90;;;;;;495810;239;28156;-73
2023/02/03 04:01:19;;;;;;;6.90;6.00;;;5.90;99.90;;;;;;495846;239;27343;-74
2023/02/03 04:03:20;;;;;;;9.23;6.95;;;5.80;99.90;;;;;;495808;239;27383;-74
2023/02/03 04:05:21;;;;;;;7.37;6.60;;;5.80;99.90;;;;;;495812;239;27441;-74
2023/02/03 04:07:23;;;;;;;11.98;7.45;;;5.90;99.90;;;;;;495788;239;27404;-76
2023/02/03 04:09:24;;;;;;;6.80;6.20;;;5.80;99.90;;;;;;495805;238;27349;-74
2023/02/03 04:13:45;;;;;;;11.70;6.97;;;5.90;99.90;;;;;;495782;239;28404;-73
2023/02/03 04:15:46;;;;;;;6.87;6.25;;;5.80;99.90;;;;;;495816;239;27495;-75
2023/02/03 04:17:48;;;;;;;11.18;6.90;;;5.90;99.90;;;;;;495827;239;27352;-74
2023/02/03 04:19:49;;;;;;;7.87;6.07;;;5.90;99.90;;;;;;495813;239;27383;-73
2023/02/03 04:21:50;;;;;;;7.68;6.53;;;5.90;99.90;;;;;;495801;239;27360;-72
2023/02/03 04:23:51;;;;;;;11.00;6.40;;;5.90;99.90;;;;;;495826;239;27561;-72
2023/02/03 04:25:53;;;;;;;6.80;5.97;;;5.90;99.90;;;;;;495877;239;28047;-78
2023/02/03 04:27:54;;;;;;;8.80;5.62;;;5.90;99.90;;;;;;495829;239;27357;-77
2023/02/03 04:29:55;;;;;;;7.75;5.78;;;5.90;99.90;;;;;;495772;239;27507;-74
2023/02/03 04:31:56;;;;;;;7.20;5.95;;;5.90;99.90;;;;;;495805;239;27399;-74
2023/02/03 04:33:58;;;;;;;10.10;6.93;;;5.90;99.90;;;;;;495778;239;27531;-74
2023/02/03 04:35:59;;;;;;;8.45;6.03;;;5.90;99.90;;;;;;495849;239;27407;-78
2023/02/03 04:38:00;;;;;;;11.65;6.00;;;5.90;99.90;;;;;;495828;239;27808;-76
2023/02/03 04:40:01;;;;;;;10.93;6.50;;;5.90;99.90;;;;;;495823;239;27993;-73
2023/02/03 04:42:03;;;;;;;9.10;6.43;;;5.90;99.90;;;;;;495806;239;27349;-73
2023/02/03 04:44:04;;;;;;;11.52;7.05;;;5.90;99.90;;;;;;495780;239;27392;-74
2023/02/03 04:46:05;;;;;;;7.60;6.45;;;5.90;99.90;;;;;;495886;239;27864;-77
2023/02/03 04:48:06;;;;;;;10.85;6.12;;;5.90;99.90;;;;;;495852;239;27472;-74
2023/02/03 04:50:08;;;;;;;9.32;6.85;;;5.90;99.90;;;;;;495649;239;27392;-74
2023/02/03 04:52:09;;;;;;;11.43;6.22;;;5.80;99.90;;;;;;495815;239;27466;-74
2023/02/03 04:54:10;;;;;;;8.75;6.70;;;5.90;99.90;;;;;;495805;239;27481;-74
2023/02/03 04:56:11;;;;;;;10.32;7.00;;;5.90;99.90;;;;;;495843;239;28149;-78
2023/02/03 04:58:13;;;;;;;10.65;6.47;;;5.90;99.90;;;;;;495820;239;27909;-77
2023/02/03 05:00:14;;;;;;;12.68;7.15;;;5.80;99.90;;;;;;495797;239;27518;-71
2023/02/03 05:02:15;;;;;;;9.60;6.53;;;5.80;99.90;;;;;;495771;239;27375;-74
2023/02/03 05:04:17;;;;;;;11.80;7.32;;;5.90;99.90;;;;;;495774;239;27459;-73
2023/02/03 05:06:18;;;;;;;7.93;6.37;;;5.80;99.90;;;;;;495840;239;27494;-73
2023/02/03 05:08:19;;;;;;;6.97;5.82;;;5.80;99.90;;;;;;495809;239;27488;-74
2023/02/03 05:10:20;;;;;;;10.20;6.43;;;5.80;99.90;;;;;;495774;239;27410;-74
2023/02/03 05:12:22;;;;;;;9.05;6.50;;;5.80;99.90;;;;;;495776;239;27360;-76
2023/02/03 05:14:23;;;;;;;14.73;6.37;;;5.80;99.90;;;;;;495828;239;27829;-75
2023/02/03 05:16:24;;;;;;;12.07;6.47;;;5.80;99.90;;;;;;495836;239;27899;-73
2023/02/03 05:18:25;;;;;;;9.57;6.43;;;5.80;99.90;;;;;;495798;239;27504;-74
2023/02/03 05:20:27;;;;;;;9.75;6.80;;;5.80;99.90;;;;;;495779;239;27436;-74
2023/02/03 05:22:28;;;;;;;13.62;6.40;;;5.80;99.90;;;;;;495747;239;27435;-73
2023/02/03 05:24:29;;;;;;;8.65;6.90;;;5.80;99.90;;;;;;495730;239;27538;-73
2023/02/03 05:26:30;;;;;;;9.50;6.30;;;5.80;99.90;;;;;;495790;239;28028;-73
2023/02/03 05:28:32;;;;;;;9.63;6.47;;;5.80;99.90;;;;;;495793;239;27912;-75
2023/02/03 05:30:33;;;;;;;6.53;5.57;;;5.70;99.90;;;;;;495770;239;27400;-77
2023/02/03 05:32:34;;;;;;;8.90;7.30;;;5.70;99.90;;;;;;495800;239;27424;-76
2023/02/03 05:34:35;;;;;;;14.45;7.28;;;5.80;99.90;;;;;;495827;239;27388;-73
2023/02/03 05:36:37;;;;;;;12.05;6.93;;;5.70;99.90;;;;;;495819;239;27383;-73
2023/02/03 05:38:38;;;;;;;12.30;7.50;;;5.70;99.90;;;;;;495832;239;27355;-77
2023/02/03 05:42:59;;;;;;;8.07;6.45;;;5.70;99.90;;;;;;495790;239;27888;-72
2023/02/03 05:45:00;;;;;;;13.38;7.37;;;5.70;99.90;;;;;;495812;239;27421;-75
2023/02/03 05:47:01;;;;;;;9.20;6.45;;;5.70;99.90;;;;;;495849;239;27552;-78
2023/02/03 05:49:02;;;;;;;10.63;6.75;;;5.70;99.90;;;;;;495824;239;27425;-73
2023/02/03 05:51:04;;;;;;;8.63;6.15;;;5.70;99.90;;;;;;495789;239;27466;-75
2023/02/03 05:53:05;;;;;;;8.00;5.55;;;5.70;99.90;;;;;;495757;239;27437;-75
2023/02/03 05:55:06;;;;;;;11.07;7.40;;;5.70;99.90;;;;;;495805;239;27971;-74
2023/02/03 05:57:07;;;;;;;19.20;7.55;;;5.70;99.90;;;;;;495862;239;27923;-79
2023/02/03 05:59:09;;;;;;;8.32;5.62;;;5.70;99.90;;;;;;495881;239;27549;-77
2023/02/03 06:01:10;;;;;;;13.70;6.68;;;5.70;99.90;;;;;;495857;239;27494;-76
2023/02/03 06:03:11;;;;;;;10.95;7.10;;;5.70;99.90;;;;;;495857;239;27452;-73
2023/02/03 06:05:12;;;;;;;11.07;7.00;;;5.70;99.90;;;;;;495834;239;27483;-74
2023/02/03 06:07:14;;;;;;;8.65;7.10;;;5.70;99.90;;;;;;495846;239;28056;-75
2023/02/03 06:09:15;;;;;;;7.87;6.47;;;5.70;99.90;;;;;;495838;239;27897;-74
2023/02/03 06:11:16;;;;;;;12.02;6.75;;;5.70;99.90;;;;;;495832;239;27501;-77
2023/02/03 06:13:17;;;;;;;9.32;6.97;;;5.70;99.90;;;;;;495807;239;27360;-73
2023/02/03 06:15:19;;;;;;;9.27;6.55;;;5.70;99.90;;;;;;495812;239;27463;-78
2023/02/03 06:17:20;;;;;;;6.75;5.75;;;5.70;99.90;;;;;;495853;239;27480;-77
2023/02/03 06:19:21;;;;;;;10.18;6.68;;;5.70;99.90;;;;;;495857;239;27570;-76
2023/02/03 06:21:22;;;;;;;11.80;6.40;;;5.60;99.90;;;;;;495818;239;27956;-74
2023/02/03 06:23:24;;;;;;;7.40;6.70;;;5.60;99.90;;;;;;495797;239;27914;-74
2023/02/03 06:25:26;;;;;;;7.82;5.65;;;5.70;99.90;;;;;;495823;239;27455;-74
2023/02/03 06:27:26;;;;;;;7.80;6.55;;;5.70;99.90;;;;;;495866;239;27400;-78
2023/02/03 06:29:27;;;;;;;8.80;6.18;;;5.70;99.90;;;;;;495852;239;27459;-73
2023/02/03 06:31:29;;;;;;;10.60;6.07;;;5.70;99.90;;;;;;495820;239;27535;-73
2023/02/03 06:33:30;;;;;;;8.93;6.50;;;5.70;99.90;;;;;;495807;239;27345;-77
2023/02/03 06:35:31;;;;;;;9.70;7.18;;;5.70;99.90;;;;;;495831;239;27859;-77
2023/02/03 06:37:34;;;;;;;9.18;5.45;;;5.70;99.90;;;;;;495847;239;27979;-74
2023/02/03 06:39:34;;;;;;;6.45;5.82;;;5.70;99.90;;;;;;495744;239;27360;-74
2023/02/03 06:41:35;;;;;;;7.68;6.43;;;5.70;99.90;;;;;;495798;239;27503;-77
2023/02/03 06:43:36;;;;;;;9.55;6.47;;;5.70;99.90;;;;;;495800;239;27476;-76
2023/02/03 06:45:38;;;;;;;9.35;6.30;;;5.70;99.90;;;;;;495842;239;27440;-76
2023/02/03 06:47:39;;;;;;;9.52;6.47;;;5.70;99.90;;;;;;495819;239;27400;-78
2023/02/03 06:49:40;;;;;;;10.52;6.40;;;5.60;99.90;;;;;;495808;239;27366;-73
2023/02/03 06:51:41;;;;;;;5.85;5.20;;;5.60;99.90;;;;;;495796;239;27867;-74
2023/02/03 06:53:43;;;;;;;8.35;6.10;;;5.60;99.90;;;;;;495816;239;27955;-73
2023/02/03 06:55:44;;;;;;;7.93;6.20;;;5.60;99.90;;;;;;495823;239;27344;-73
2023/02/03 06:57:45;;;;;;;6.80;5.75;;;5.60;99.90;;;;;;495838;239;27471;-75
2023/02/03 06:59:46;;;;;;;6.95;5.85;;;5.60;99.90;;;;;;495788;239;27635;-78
2023/02/03 07:01:48;;;;;;;7.10;5.75;;;5.60;99.90;;;;;;495785;239;27466;-77
2023/02/03 07:03:49;;;;;;;6.62;5.60;;;5.60;99.90;;;;;;495747;239;27840;-75
2023/02/03 07:05:50;;;;;;;6.00;5.10;;;5.60;99.90;;;;;;495841;239;27950;-76
2023/02/03 07:07:51;;;;;;;7.70;5.50;;;5.60;99.90;;;;;;495823;239;28132;-75
2023/02/03 07:09:53;;;;;;;7.62;5.78;;;5.60;99.90;;;;;;495813;239;27914;-76
2023/02/03 07:11:54;;;;;;;6.20;4.93;;;5.60;99.90;;;;;;495805;239;27388;-76
2023/02/03 07:13:55;;;;;;;8.07;5.37;;;5.60;99.90;;;;;;495847;239;27522;-78
2023/02/03 07:15:56;;;;;;;7.55;5.70;;;5.60;99.90;;;;;;495821;239;27507;-75
2023/02/03 07:17:58;;;;;;;8.05;5.78;;;5.60;99.90;;;;;;495696;239;27483;-75
2023/02/03 07:19:59;;;;;;;7.15;5.47;;;5.60;99.90;;;;;;495801;239;27442;-77
2023/02/03 07:22:00;;;;;;;6.90;5.75;;;5.60;99.90;;;;;;495851;239;28207;-76
2023/02/03 07:24:02;;;;;;;7.10;5.60;;;5.60;99.90;;;;;;495826;239;28141;-76
2023/02/03 07:26:06;;;;;;;7.12;4.95;;;5.60;99.90;;;;;;495837;239;27364;-73
2023/02/03 07:28:04;;;;;;;5.45;4.82;;;5.60;99.90;;;;;;495709;239;27476;-76
2023/02/03 07:30:05;;;;;;;6.97;5.75;;;5.60;99.90;;;;;;495815;239;27368;-76
2023/02/03 07:32:06;;;;;;;7.90;5.05;;;5.60;99.90;;;;;;495856;239;27511;-76
2023/02/03 07:34:08;;;;;;;6.60;5.60;;;5.60;99.90;;;;;;495818;239;27515;-77
2023/02/03 07:36:09;;;;;;;8.68;5.47;;;5.70;99.90;;;;;;495819;239;27359;-74
2023/02/03 07:38:11;;;;;;;9.02;6.35;;;5.60;99.90;;;;;;495818;239;27994;-74
2023/02/03 07:40:11;;;;;;;7.53;5.65;;;5.70;99.90;;;;;;495814;239;28149;-73
2023/02/03 07:42:13;;;;;;;6.87;5.70;;;5.70;99.90;;;;;;495861;239;27349;-73
2023/02/03 07:44:14;;;;;;;5.95;5.35;;;5.70;99.90;;;;;;495856;239;27387;-74
2023/02/03 07:46:15;;;;;;;5.35;4.85;;;5.70;99.90;;;;;;495833;239;27344;-73
2023/02/03 07:48:17;;;;;;;5.70;5.03;;;5.70;99.90;;;;;;495815;239;27404;-72
2023/02/03 07:50:18;;;;;;;5.90;4.95;;;5.70;99.90;;;;;;495853;239;27483;-72
2023/02/03 07:52:19;;;;;;;8.98;5.75;;;5.70;99.90;;;;;;495844;239;27801;-74
2023/02/03 07:54:20;;;;;;;7.50;5.28;;;5.70;99.90;;;;;;495855;239;28105;-78
2023/02/03 07:56:22;;;;;;;5.87;5.05;;;5.80;99.90;;;;;;495828;239;28052;-73
2023/02/03 07:58:23;;;;;;;10.02;6.15;;;5.70;99.90;;;;;;495831;239;27392;-77
2023/02/03 08:00:24;;;;;;;8.70;5.22;;;5.70;99.90;;;;;;495867;239;27482;-76
2023/02/03 08:02:25;;;;;;;8.38;5.50;;;5.80;99.90;;;;;;495844;239;27376;-76
2023/02/03 08:04:27;;;;;;;5.07;4.57;;;5.80;99.90;;;;;;495821;239;27404;-75
2023/02/03 08:06:29;;;;;;;5.30;4.80;;;5.80;99.90;;;;;;495813;239;27482;-74
2023/02/03 08:08:29;;;;;;;5.95;4.70;;;5.70;99.90;;;;;;495760;239;27944;-76
2023/02/03 08:10:30;;;;;;;9.75;6.15;;;5.80;99.90;;;;;;495863;239;27990;-75
2023/02/03 08:12:32;;;;;;;6.90;4.93;;;5.80;99.90;;;;;;495830;239;27475;-73
2023/02/03 08:14:33;;;;;;;5.90;5.30;;;5.80;99.90;;;;;;495825;239;27481;-77
2023/02/03 08:16:35;;;;;;;6.50;4.93;;;5.80;99.90;;;;;;495806;239;27443;-76
2023/02/03 08:18:35;;;;;;;6.35;5.12;;;5.80;99.90;;;;;;495812;239;27585;-71
2023/02/03 08:20:37;;;;;;;8.98;5.35;;;5.80;99.90;;;;;;495823;239;27416;-73
2023/02/03 08:22:38;;;;;;;6.95;4.62;;;5.70;99.90;;;;;;495814;239;27875;-74
2023/02/03 08:24:43;;;;;;;12.37;4.62;;;5.70;99.90;;;;;;495809;239;27875;-73
2023/02/03 08:26:40;;;;;;;7.00;5.60;;;5.80;99.90;;;;;;495596;239;27396;-77
2023/02/03 08:28:42;;;;;;;5.65;4.75;;;5.80;99.90;;;;;;495829;239;27345;-75
2023/02/03 08:30:43;;;;;;;5.57;4.70;;;5.80;99.90;;;;;;495802;239;27404;-73
2023/02/03 08:32:44;;;;;;;5.95;5.07;;;5.80;99.90;;;;;;495798;239;27482;-74
2023/02/03 08:34:45;;;;;;;5.30;4.80;;;5.80;99.90;;;;;;495788;239;27436;-73
2023/02/03 08:36:47;;;;;;;5.30;4.57;;;5.80;99.90;;;;;;495811;239;28708;-73
2023/02/03 08:38:48;;;;;;;5.62;5.03;;;5.80;99.90;;;;;;495831;239;27921;-73
2023/02/03 08:40:49;;;;;;;5.22;4.68;;;5.80;99.90;;;;;;495832;239;27388;-75
2023/02/03 08:42:50;;;;;;;6.03;4.60;;;5.80;99.90;;;;;;495797;239;27357;-76
2023/02/03 08:44:52;;;;;;;5.18;4.68;;;5.90;99.90;;;;;;495783;239;27419;-76
2023/02/03 08:46:53;;;;;;;5.97;5.37;;;5.90;99.90;;;;;;495787;239;27404;-76
2023/02/03 08:48:55;;;;;;;6.37;4.65;;;5.90;99.90;;;;;;495824;239;27389;-77
2023/02/03 08:50:55;;;;;;;5.55;5.00;;;6.00;99.90;;;;;;495809;239;27974;-77
2023/02/03 08:52:57;;;;;;;7.55;5.30;;;5.90;99.90;;;;;;495804;239;27871;-77
2023/02/03 08:54:58;;;;;;;7.35;4.93;;;6.00;99.90;;;;;;495805;239;27497;-77
2023/02/03 08:56:59;;;;;;;9.85;5.10;;;6.00;99.90;;;;;;495815;239;27435;-76
2023/02/03 08:59:01;;;;;;;5.25;4.45;;;5.90;99.90;;;;;;495804;239;27483;-73
2023/02/03 09:01:02;;;;;;;7.93;5.85;;;6.00;99.90;;;;;;495834;239;27507;-75
2023/02/03 09:03:03;;;;;;;5.00;4.50;;;6.00;99.90;;;;;;495816;239;27357;-73
2023/02/03 09:05:04;;;;;;;5.62;5.03;;;6.00;99.90;;;;;;495800;239;28800;-73
2023/02/03 09:07:06;;;;;;;4.65;4.25;;;6.00;99.90;;;;;;495769;239;27817;-77
2023/02/03 09:09:07;;;;;;;5.28;4.87;;;6.00;99.90;;;;;;495810;239;28026;-74
2023/02/03 09:11:08;;;;;;;5.68;5.05;;;6.00;99.90;;;;;;495827;239;27494;-74
2023/02/03 09:13:09;;;;;;;6.50;4.80;;;6.00;99.90;;;;;;495822;239;27464;-73
2023/02/03 09:15:11;;;;;;;7.53;5.05;;;6.00;99.90;;;;;;495825;239;27492;-77
2023/02/03 09:17:12;;;;;;;4.87;4.47;;;6.00;99.90;;;;;;495832;239;27458;-77
2023/02/03 09:19:13;;;;;;;6.22;4.65;;;6.00;99.90;;;;;;495839;239;27448;-77
2023/02/03 09:21:17;;;;;;;6.75;5.55;;;6.00;99.90;;;;;;495856;239;27886;-76
2023/02/03 09:23:19;;;;;;;5.57;4.70;;;6.00;99.90;;;;;;495858;239;27395;-75
2023/02/03 09:25:20;;;;;;;5.85;4.45;;;6.00;99.90;;;;;;495808;239;27345;-74
2023/02/03 09:27:21;;;;;;;5.57;4.30;;;6.00;99.90;;;;;;495810;239;27412;-73
2023/02/03 09:29:22;;;;;;;4.45;4.05;;;6.00;99.90;;;;;;495824;239;27474;-73
2023/02/03 09:31:24;;;;;;;5.22;4.10;;;6.00;99.90;;;;;;495848;239;27357;-73
2023/02/03 09:33:25;;;;;;;4.30;3.90;;;6.00;99.90;;;;;;495808;239;27876;-77
2023/02/03 09:35:28;;;;;;;5.93;3.70;;;6.00;99.90;;;;;;495813;239;27958;-74
2023/02/03 09:37:27;;;;;;;4.72;3.72;;;6.00;99.90;;;;;;495737;239;27383;-75
2023/02/03 09:39:29;;;;;;;6.20;4.30;;;6.00;99.90;;;;;;495792;239;27428;-77
2023/02/03 09:41:30;;;;;;;4.32;3.87;;;6.00;99.90;;;;;;495842;239;27360;-73
2023/02/03 09:43:31;;;;;;;5.82;4.22;;;6.00;99.90;;;;;;495831;239;27606;-73
2023/02/03 09:45:32;;;;;;;4.35;3.95;;;6.00;99.90;;;;;;495843;239;27351;-76
2023/02/03 09:47:34;;;;;;;4.72;3.65;;;6.00;99.90;;;;;;495799;239;27874;-77
2023/02/03 09:49:35;;;;;;;7.03;3.25;;;6.00;99.90;;;;;;495780;239;28974;-76
2023/02/03 09:51:36;;;;;;;3.10;2.90;;;6.10;99.90;;;;;;495847;239;27384;-72
2023/02/03 09:53:38;;;;;;;4.68;3.67;;;6.10;99.90;;;;;;495837;239;27388;-73
2023/02/03 09:55:39;;;;;;;3.87;3.03;;;6.10;99.90;;;;;;495817;239;27360;-73
2023/02/03 09:57:40;;;;;;;3.10;2.90;;;6.20;99.90;;;;;;495799;239;27424;-74
2023/02/03 09:59:41;;;;;;;3.20;3.00;;;6.20;99.90;;;;;;495808;239;27356;-77
2023/02/03 10:01:42;;;;;;;3.62;2.55;;;6.30;99.90;;;;;;495844;239;27906;-77
2023/02/03 10:03:44;;;;;;;3.00;2.70;;;6.30;99.90;;;;;;495843;240;27898;-73
2023/02/03 10:05:45;;;;;;;3.33;2.83;;;6.30;99.90;;;;;;495806;239;28571;-74
2023/02/03 10:07:46;;;;;;;2.90;2.70;;;6.20;99.90;;;;;;495810;239;27498;-73
2023/02/03 10:09:48;;;;;;;4.72;2.70;;;6.30;99.90;;;;;;495775;239;27341;-74
2023/02/03 10:11:49;;;;;;;2.95;2.75;;;6.30;99.90;;;;;;495801;239;27494;-74
2023/02/03 10:13:50;;;;;;;2.92;2.62;;;6.30;99.90;;;;;;495833;239;27483;-74
2023/02/03 10:15:51;;;;;;;3.05;2.65;;;6.30;99.90;;;;;;495793;239;27356;-73
2023/02/03 10:17:53;;;;;;;3.00;2.70;;;6.30;99.90;;;;;;495812;239;27404;-74
2023/02/03 10:19:54;;;;;;;2.97;2.77;;;6.20;99.90;;;;;;495813;239;27438;-77
2023/02/03 10:21:55;;;;;;;3.20;2.78;;;6.20;99.90;;;;;;495819;239;28719;-73
2023/02/03 10:23:57;;;;;;;4.00;2.70;;;6.20;99.90;;;;;;495887;239;27762;-75
2023/02/03 10:25:58;;;;;;;3.83;2.60;;;6.20;99.90;;;;;;495827;239;28545;-74
2023/02/03 10:27:59;;;;;;;2.87;2.60;;;6.20;99.90;;;;;;495793;239;28581;-73
2023/02/03 10:30:00;;;;;;;4.47;2.67;;;6.20;99.90;;;;;;495753;239;29142;-73
2023/02/03 10:32:01;;;;;;;5.65;2.70;;;6.20;99.90;;;;;;495713;239;28526;-74
2023/02/03 10:34:03;;;;;;;2.95;2.70;;;6.20;99.90;;;;;;495802;239;27416;-75
2023/02/03 10:36:04;;;;;;;4.18;2.75;;;6.20;99.90;;;;;;495778;239;27348;-74
2023/02/03 10:38:05;;;;;;;2.30;2.20;;;6.20;99.90;;;;;;495788;239;27462;-75
2023/02/03 10:40:06;;;;;;;5.03;2.50;;;6.20;99.90;;;;;;495796;239;27400;-74
2023/02/03 10:42:08;;;;;;;2.45;2.17;;;6.20;99.90;;;;;;495788;239;28574;-77